Time;durP1;ratioP1;P1;durP2;ratioP2;P2;SDS_P1;SDS_P2;PMS_P1;PMS_P2;Temp;Humidity;BMP_temperature;BMP_pressure;BME280_temperature;BME280_humidity;BME280_pressure;Samples;Min_cycle;Max_cycle;Signal;HPM_P1;HPM_P2
2022/10/26 00:02:24;;;;;;;23.83;9.98;;;11.10;99.90;;;;;;4953824;29;20054;-63
2022/10/26 00:04:50;;;;;;;19.30;8.75;;;11.10;99.90;;;;;;4943801;29;20046;-63
2022/10/26 00:07:16;;;;;;;19.55;8.70;;;11.10;99.90;;;;;;4937424;29;20532;-63
2022/10/26 00:09:41;;;;;;;18.15;9.23;;;11.10;99.90;;;;;;4935177;28;20490;-64
2022/10/26 00:12:07;;;;;;;14.43;9.32;;;10.80;99.90;;;;;;4953422;28;20122;-63
2022/10/26 00:14:32;;;;;;;17.20;8.57;;;11.10;99.90;;;;;;4937860;29;20047;-64
2022/10/26 00:16:58;;;;;;;15.82;9.13;;;11.00;99.90;;;;;;4954126;29;20035;-63
2022/10/26 00:19:24;;;;;;;22.23;10.95;;;10.90;99.90;;;;;;4951849;29;20391;-64
2022/10/26 00:21:49;;;;;;;14.18;8.95;;;11.00;99.90;;;;;;4953935;28;20057;-63
2022/10/26 00:24:15;;;;;;;14.15;8.57;;;11.00;99.90;;;;;;4955457;29;20050;-63
2022/10/26 00:26:40;;;;;;;15.48;9.15;;;10.90;99.90;;;;;;4933098;28;20051;-64
2022/10/26 00:29:06;;;;;;;22.75;9.15;;;10.80;99.90;;;;;;4955294;29;20046;-64
2022/10/26 00:31:32;;;;;;;18.25;8.65;;;10.90;99.90;;;;;;4954770;29;20081;-63
2022/10/26 00:33:58;;;;;;;15.00;9.00;;;10.80;99.90;;;;;;4954427;29;20102;-63
2022/10/26 00:36:24;;;;;;;18.10;9.27;;;10.90;99.90;;;;;;4937199;29;20066;-64
2022/10/26 00:38:51;;;;;;;13.73;8.55;;;10.80;99.90;;;;;;4953754;29;20122;-64
2022/10/26 00:41:20;;;;;;;19.27;9.10;;;10.70;99.90;;;;;;4936231;29;20067;-63
2022/10/26 00:43:46;;;;;;;14.38;8.98;;;10.70;99.90;;;;;;4937183;29;20489;-64
2022/10/26 00:46:20;;;;;;;14.05;8.27;;;10.70;99.90;;;;;;4938136;29;20039;-63
2022/10/26 00:48:50;;;;;;;20.38;9.70;;;10.50;99.90;;;;;;4936009;29;20075;-63
2022/10/26 00:51:31;;;;;;;16.15;9.52;;;10.60;99.90;;;;;;4949760;29;20035;-63
2022/10/26 00:53:58;;;;;;;15.32;9.45;;;10.50;99.90;;;;;;4954404;29;20042;-64
2022/10/26 00:56:23;;;;;;;16.80;9.38;;;10.50;99.90;;;;;;4953382;28;20051;-63
2022/10/26 00:58:50;;;;;;;20.42;11.30;;;10.60;99.90;;;;;;4936356;29;20043;-63
2022/10/26 01:01:15;;;;;;;16.67;9.95;;;10.60;99.90;;;;;;4953167;29;20118;-63
2022/10/26 01:03:41;;;;;;;19.27;10.10;;;10.60;99.90;;;;;;4952928;29;20529;-63
2022/10/26 01:06:08;;;;;;;15.10;10.32;;;;;;;;;;4954567;29;20042;-63
2022/10/26 01:08:34;;;;;;;16.42;10.02;;;10.60;99.90;;;;;;4954076;29;20138;-63
2022/10/26 01:11:00;;;;;;;23.92;11.95;;;10.50;99.90;;;;;;4952043;28;20091;-64
2022/10/26 01:13:28;;;;;;;17.85;12.15;;;10.40;99.90;;;;;;4953907;29;20602;-63
2022/10/26 01:16:20;;;;;;;23.77;11.70;;;10.30;99.90;;;;;;4954027;29;20121;-63
2022/10/26 01:18:58;;;;;;;20.63;11.48;;;10.50;99.90;;;;;;4918400;29;20058;-62
2022/10/26 01:21:32;;;;;;;22.27;11.80;;;10.50;99.90;;;;;;4954068;29;20493;-63
2022/10/26 01:24:31;;;;;;;24.77;12.73;;;10.50;99.90;;;;;;4936789;29;20035;-63
2022/10/26 01:27:08;;;;;;;21.33;12.88;;;10.30;99.90;;;;;;4930964;29;20298;-64
2022/10/26 01:30:08;;;;;;;25.15;14.02;;;10.40;99.90;;;;;;4937080;29;20051;-63
2022/10/26 01:32:50;;;;;;;24.58;15.77;;;10.40;99.90;;;;;;4949262;28;21638;-63
2022/10/26 01:35:28;;;;;;;25.65;16.00;;;10.40;99.90;;;;;;4958408;29;20043;-64
2022/10/26 01:38:10;;;;;;;31.50;17.60;;;10.40;99.90;;;;;;4957544;29;20047;-63
2022/10/26 01:40:44;;;;;;;31.58;18.08;;;10.20;99.90;;;;;;4940033;29;20106;-64
2022/10/26 01:43:12;;;;;;;33.47;19.95;;;10.40;99.90;;;;;;4940654;29;20039;-63
2022/10/26 01:45:42;;;;;;;36.58;21.00;;;10.30;99.90;;;;;;4953817;28;20056;-63
2022/10/26 01:48:11;;;;;;;36.83;21.45;;;10.30;99.90;;;;;;4956666;29;20114;-63
2022/10/26 01:50:39;;;;;;;37.55;24.02;;;10.40;99.90;;;;;;4956931;28;20090;-64
2022/10/26 01:53:05;;;;;;;39.97;24.55;;;10.40;99.90;;;;;;4940442;29;20043;-63
2022/10/26 01:55:50;;;;;;;42.30;25.30;;;10.40;99.90;;;;;;4957321;29;20130;-63
2022/10/26 01:58:30;;;;;;;40.33;25.20;;;10.30;99.90;;;;;;4954016;29;20110;-64
2022/10/26 02:01:33;;;;;;;36.33;23.63;;;10.30;99.90;;;;;;4937916;29;20043;-64
2022/10/26 02:04:29;;;;;;;39.17;24.20;;;10.30;99.90;;;;;;4956376;29;20094;-63
2022/10/26 02:07:01;;;;;;;36.15;21.88;;;;;;;;;;4950022;28;20118;-63
2022/10/26 02:09:30;;;;;;;37.53;21.80;;;10.30;99.90;;;;;;4957099;29;20529;-63
2022/10/26 02:11:56;;;;;;;34.35;21.38;;;;;;;;;;4939861;29;20502;-63
2022/10/26 02:14:32;;;;;;;33.00;19.60;;;10.40;99.90;;;;;;4955398;29;20458;-63
2022/10/26 02:17:07;;;;;;;33.78;19.52;;;10.30;99.90;;;;;;4955937;29;20122;-63
2022/10/26 02:19:55;;;;;;;34.75;21.08;;;10.10;99.90;;;;;;4957519;29;20050;-63
2022/10/26 02:22:24;;;;;;;31.30;18.85;;;10.10;99.90;;;;;;4955876;28;20617;-63
2022/10/26 02:24:52;;;;;;;25.20;16.98;;;10.10;99.90;;;;;;4957541;29;20047;-63
2022/10/26 02:27:29;;;;;;;31.15;19.08;;;10.10;99.90;;;;;;4937297;29;20043;-63
2022/10/26 02:29:56;;;;;;;30.92;19.23;;;;;;;;;;4957293;29;20043;-63
2022/10/26 02:32:25;;;;;;;28.00;17.80;;;10.20;99.90;;;;;;4955699;29;20402;-63
2022/10/26 02:34:51;;;;;;;28.92;17.80;;;;;;;;;;4937772;28;20074;-64
2022/10/26 02:37:20;;;;;;;29.30;16.92;;;10.00;99.90;;;;;;4939232;29;20082;-63
2022/10/26 02:39:49;;;;;;;24.80;16.25;;;10.00;99.90;;;;;;4939445;29;20043;-63
2022/10/26 02:42:17;;;;;;;29.83;15.85;;;10.10;99.90;;;;;;4953688;29;20098;-63
2022/10/26 02:44:50;;;;;;;23.58;14.95;;;10.00;99.90;;;;;;4939244;29;20513;-64
2022/10/26 02:47:18;;;;;;;30.08;16.17;;;10.10;99.90;;;;;;4955672;29;20098;-63
2022/10/26 02:49:44;;;;;;;25.00;16.17;;;10.00;99.90;;;;;;4956929;29;20114;-63
2022/10/26 02:52:18;;;;;;;25.23;15.77;;;9.90;99.90;;;;;;4938290;29;20617;-63
2022/10/26 02:55:07;;;;;;;24.15;15.13;;;9.90;99.90;;;;;;4939862;29;20554;-64
2022/10/26 02:57:48;;;;;;;22.48;14.77;;;9.90;99.90;;;;;;4931012;29;20078;-63
2022/10/26 03:00:16;;;;;;;25.40;14.05;;;10.10;99.90;;;;;;4955637;29;20039;-63
2022/10/26 03:02:43;;;;;;;23.70;14.20;;;10.00;99.90;;;;;;4955409;29;20474;-63
2022/10/26 03:05:18;;;;;;;26.73;14.63;;;10.10;99.90;;;;;;4938306;28;20497;-64
2022/10/26 03:07:43;;;;;;;24.45;14.48;;;9.80;99.90;;;;;;4938939;29;20138;-63
2022/10/26 03:10:09;;;;;;;23.08;15.52;;;10.00;99.90;;;;;;4938887;29;20476;-63
2022/10/26 03:12:35;;;;;;;26.00;14.85;;;10.00;99.90;;;;;;4929398;29;20050;-63
2022/10/26 03:15:01;;;;;;;25.05;14.05;;;9.90;99.90;;;;;;4951507;29;20035;-63
2022/10/26 03:17:26;;;;;;;27.67;14.55;;;9.90;99.90;;;;;;4955044;29;20042;-63
2022/10/26 03:19:53;;;;;;;28.75;15.45;;;;;;;;;;4954979;28;20043;-64
2022/10/26 03:22:19;;;;;;;24.02;14.10;;;9.90;99.90;;;;;;4938419;29;20510;-63
2022/10/26 03:24:45;;;;;;;24.02;14.00;;;10.20;99.90;;;;;;4939243;29;20082;-63
2022/10/26 03:27:10;;;;;;;25.98;14.73;;;10.10;99.90;;;;;;4954067;29;20039;-63
2022/10/26 03:29:36;;;;;;;19.90;13.55;;;10.10;99.90;;;;;;4937972;29;20389;-63
2022/10/26 03:32:01;;;;;;;21.15;12.95;;;10.30;99.90;;;;;;4954760;29;20556;-63
2022/10/26 03:34:27;;;;;;;23.20;14.18;;;;;;;;;;4938359;29;20622;-64
2022/10/26 03:36:53;;;;;;;28.35;15.00;;;10.10;99.90;;;;;;4954071;28;20382;-63
2022/10/26 03:39:18;;;;;;;25.63;14.73;;;10.00;99.90;;;;;;4938195;29;20035;-63
2022/10/26 03:41:44;;;;;;;27.55;14.18;;;10.00;99.90;;;;;;4955597;29;20050;-63
2022/10/26 03:44:09;;;;;;;23.27;14.18;;;10.20;99.90;;;;;;4955407;29;20043;-63
2022/10/26 03:46:35;;;;;;;23.10;13.80;;;10.00;99.90;;;;;;4955713;29;20039;-63
2022/10/26 03:49:00;;;;;;;24.75;14.25;;;10.00;99.90;;;;;;4942547;29;20406;-64
2022/10/26 03:51:26;;;;;;;28.20;14.20;;;9.90;99.90;;;;;;4953384;28;20422;-63
2022/10/26 03:53:52;;;;;;;22.98;14.20;;;10.10;99.90;;;;;;4934552;29;20047;-63
2022/10/26 03:56:18;;;;;;;26.85;14.63;;;;;;;;;;4948721;28;20445;-64
2022/10/26 03:58:44;;;;;;;23.75;14.57;;;9.90;99.90;;;;;;4937362;29;20065;-63
2022/10/26 04:01:09;;;;;;;22.85;13.48;;;9.90;99.90;;;;;;4954098;29;20452;-63
2022/10/26 04:03:35;;;;;;;26.98;15.98;;;10.10;99.90;;;;;;4953123;29;20453;-63
2022/10/26 04:06:01;;;;;;;32.05;15.40;;;10.00;99.90;;;;;;4955036;29;20505;-63
2022/10/26 04:08:27;;;;;;;21.40;14.13;;;10.20;99.90;;;;;;4955268;29;20049;-62
2022/10/26 04:10:52;;;;;;;29.30;15.32;;;10.00;99.90;;;;;;4953632;29;20110;-63
2022/10/26 04:13:18;;;;;;;23.70;13.80;;;10.10;99.90;;;;;;4954313;28;20478;-63
2022/10/26 04:15:44;;;;;;;27.67;16.02;;;;;;;;;;4954001;29;20482;-64
2022/10/26 04:18:12;;;;;;;26.98;15.73;;;10.10;99.90;;;;;;4933903;29;20466;-63
2022/10/26 04:20:41;;;;;;;29.10;16.27;;;10.20;99.90;;;;;;4927726;29;20058;-63
2022/10/26 04:23:09;;;;;;;24.00;15.02;;;10.10;99.90;;;;;;4954397;29;20046;-63
2022/10/26 04:25:35;;;;;;;25.35;14.70;;;10.30;99.90;;;;;;4953134;28;20039;-63
2022/10/26 04:28:02;;;;;;;26.92;15.00;;;;;;;;;;4937405;29;20486;-63
2022/10/26 04:30:28;;;;;;;26.13;15.80;;;10.30;99.90;;;;;;4937100;29;20043;-63
2022/10/26 04:32:53;;;;;;;24.08;15.10;;;10.30;99.90;;;;;;4936657;29;20043;-64
2022/10/26 04:35:19;;;;;;;21.88;15.25;;;10.40;99.90;;;;;;4954368;29;20109;-63
2022/10/26 04:37:45;;;;;;;26.42;15.93;;;;;;;;;;4954962;29;20106;-64
2022/10/26 04:40:11;;;;;;;23.42;15.80;;;10.30;99.90;;;;;;4952431;28;20071;-63
2022/10/26 04:42:46;;;;;;;30.05;15.35;;;10.30;99.90;;;;;;4954525;29;20434;-63
2022/10/26 04:45:13;;;;;;;26.48;16.42;;;10.30;99.90;;;;;;4954528;29;20416;-63
2022/10/26 04:47:40;;;;;;;26.17;15.82;;;10.40;99.90;;;;;;4954309;28;20126;-64
2022/10/26 04:50:07;;;;;;;25.60;15.20;;;10.40;99.90;;;;;;4955345;28;20035;-63
2022/10/26 04:52:33;;;;;;;27.20;16.15;;;10.50;99.90;;;;;;4950773;29;20067;-63
2022/10/26 04:54:59;;;;;;;25.38;15.65;;;10.40;99.90;;;;;;4952406;28;20390;-64
2022/10/26 04:57:24;;;;;;;21.60;15.30;;;10.50;99.90;;;;;;4937063;29;20055;-63
2022/10/26 04:59:50;;;;;;;27.38;15.15;;;10.50;99.90;;;;;;4933167;29;20051;-63
2022/10/26 05:02:16;;;;;;;26.67;15.65;;;10.40;99.90;;;;;;4952097;29;20051;-64
2022/10/26 05:04:42;;;;;;;29.33;17.10;;;10.50;99.90;;;;;;4954274;29;20512;-64
2022/10/26 05:07:07;;;;;;;25.20;15.95;;;10.50;99.90;;;;;;4954596;29;20050;-64
2022/10/26 05:09:33;;;;;;;28.15;15.80;;;10.50;99.90;;;;;;4935338;29;20049;-63
2022/10/26 05:11:58;;;;;;;22.63;14.63;;;10.50;99.90;;;;;;4955006;29;20037;-63
2022/10/26 05:14:24;;;;;;;27.30;15.73;;;10.70;99.90;;;;;;4927071;29;20068;-63
2022/10/26 05:16:50;;;;;;;26.05;16.13;;;10.70;99.90;;;;;;4953024;29;20048;-64
2022/10/26 05:19:16;;;;;;;25.08;15.57;;;;;;;;;;4956531;28;20051;-64
2022/10/26 05:21:41;;;;;;;25.67;16.00;;;10.70;99.90;;;;;;4936455;29;20163;-63
2022/10/26 05:24:07;;;;;;;21.02;15.05;;;10.60;99.90;;;;;;4953583;28;20036;-63
2022/10/26 05:26:32;;;;;;;26.33;14.85;;;10.70;99.90;;;;;;4937350;29;20548;-63
2022/10/26 05:28:58;;;;;;;21.65;13.82;;;10.70;99.90;;;;;;4953789;29;20043;-62
2022/10/26 05:31:24;;;;;;;20.27;14.27;;;10.80;99.90;;;;;;4936050;29;20040;-63
2022/10/26 05:33:50;;;;;;;23.90;14.43;;;10.60;99.90;;;;;;4953698;29;20051;-63
2022/10/26 05:36:19;;;;;;;22.58;14.63;;;10.70;99.90;;;;;;4935183;29;20134;-63
2022/10/26 05:38:45;;;;;;;24.65;14.20;;;10.90;99.90;;;;;;4954728;28;20039;-64
2022/10/26 05:41:11;;;;;;;23.65;13.75;;;10.90;99.90;;;;;;4952697;28;20042;-63
2022/10/26 05:43:36;;;;;;;20.48;14.20;;;10.70;99.90;;;;;;4935784;29;20074;-63
2022/10/26 05:46:02;;;;;;;27.40;13.93;;;10.60;99.90;;;;;;4951707;29;20031;-63
2022/10/26 05:48:28;;;;;;;24.67;14.20;;;10.80;99.90;;;;;;4952339;29;20040;-63
2022/10/26 05:50:53;;;;;;;26.95;15.00;;;10.80;99.90;;;;;;4951102;28;20035;-63
2022/10/26 05:53:19;;;;;;;20.20;13.93;;;10.90;99.90;;;;;;4952679;29;20042;-63
2022/10/26 05:55:45;;;;;;;23.52;15.02;;;10.90;99.90;;;;;;4953603;29;20051;-64
2022/10/26 05:58:13;;;;;;;20.63;12.90;;;10.90;99.90;;;;;;4934352;29;20481;-63
2022/10/26 06:00:53;;;;;;;23.38;13.75;;;10.90;99.90;;;;;;4950411;29;20040;-63
2022/10/26 06:03:42;;;;;;;26.17;12.93;;;10.90;99.90;;;;;;4937164;29;20051;-63
2022/10/26 06:06:11;;;;;;;23.05;12.75;;;11.00;99.90;;;;;;4948661;28;20040;-63
2022/10/26 06:08:37;;;;;;;23.10;13.52;;;10.90;99.90;;;;;;4935504;28;20390;-63
2022/10/26 06:11:03;;;;;;;21.55;13.15;;;11.10;99.90;;;;;;4935525;29;20032;-64
2022/10/26 06:13:29;;;;;;;20.25;13.20;;;11.10;99.90;;;;;;4948825;29;20040;-64
2022/10/26 06:16:27;;;;;;;23.65;13.25;;;11.00;99.90;;;;;;4934955;29;20039;-63
2022/10/26 06:19:13;;;;;;;21.90;11.82;;;11.00;99.90;;;;;;4927721;28;20405;-62
2022/10/26 06:22:05;;;;;;;21.80;13.02;;;;;;;;;;4940236;29;20043;-63
2022/10/26 06:24:49;;;;;;;24.70;14.82;;;11.00;99.90;;;;;;4935643;29;20047;-62
2022/10/26 06:27:26;;;;;;;22.50;13.13;;;11.10;99.90;;;;;;4948248;29;20468;-63
2022/10/26 06:29:57;;;;;;;21.13;12.52;;;11.10;99.90;;;;;;4949665;29;20071;-63
2022/10/26 06:32:26;;;;;;;21.38;11.93;;;11.10;99.90;;;;;;4956497;29;20043;-63
2022/10/26 06:35:00;;;;;;;17.70;12.40;;;11.20;99.90;;;;;;4934012;29;20042;-64
2022/10/26 06:37:28;;;;;;;17.65;11.43;;;11.10;99.90;;;;;;4933072;29;20058;-63
2022/10/26 06:39:56;;;;;;;23.15;12.38;;;11.20;99.90;;;;;;4956970;29;20495;-63
2022/10/26 06:42:22;;;;;;;22.27;12.38;;;11.20;99.90;;;;;;4950339;29;20050;-63
2022/10/26 06:44:48;;;;;;;18.55;12.52;;;11.10;99.90;;;;;;4957281;29;20039;-64
2022/10/26 06:47:25;;;;;;;20.40;11.55;;;11.40;99.90;;;;;;4956993;29;20083;-63
2022/10/26 06:50:09;;;;;;;21.73;12.52;;;11.10;99.90;;;;;;4929127;29;20039;-63
2022/10/26 06:52:42;;;;;;;17.88;11.38;;;11.30;99.90;;;;;;4956093;29;22102;-63
2022/10/26 06:55:17;;;;;;;21.45;11.73;;;11.20;99.90;;;;;;4931020;29;20114;-64
2022/10/26 06:57:43;;;;;;;;;;;11.30;99.90;;;;;;4957156;29;20043;-63
2022/10/26 07:00:24;;;;;;;19.00;10.10;;;11.10;99.90;;;;;;4957266;29;19969;-63
2022/10/26 07:02:50;;;;;;;19.55;11.43;;;11.30;99.90;;;;;;4956001;29;20047;-64
2022/10/26 07:05:16;;;;;;;16.70;10.68;;;11.40;99.90;;;;;;4955723;28;20123;-63
2022/10/26 07:07:46;;;;;;;19.05;10.25;;;11.30;99.90;;;;;;4938069;29;20047;-63
2022/10/26 07:10:13;;;;;;;19.15;10.30;;;11.40;99.90;;;;;;4944995;28;20031;-63
2022/10/26 07:12:39;;;;;;;17.98;9.68;;;11.60;99.90;;;;;;4941609;29;20039;-63
2022/10/26 07:15:07;;;;;;;27.77;10.57;;;11.50;99.90;;;;;;4956773;29;20038;-63
2022/10/26 07:17:42;;;;;;;20.58;10.93;;;11.50;99.90;;;;;;4939394;29;20046;-63
2022/10/26 07:20:08;;;;;;;13.50;8.77;;;11.50;99.90;;;;;;4942878;28;20044;-62
2022/10/26 07:22:34;;;;;;;14.98;8.32;;;11.90;99.90;;;;;;4947904;29;20046;-62
2022/10/26 07:24:59;;;;;;;13.90;8.07;;;11.70;99.90;;;;;;4939143;29;20121;-63
2022/10/26 07:27:25;;;;;;;16.83;8.25;;;11.80;99.90;;;;;;4939141;29;20047;-63
2022/10/26 07:29:50;;;;;;;14.57;8.75;;;11.80;99.90;;;;;;4939009;28;20043;-64
2022/10/26 07:32:16;;;;;;;15.35;9.57;;;11.80;99.90;;;;;;4937658;29;20074;-63
2022/10/26 07:34:41;;;;;;;12.35;8.02;;;11.90;99.90;;;;;;4954860;28;20039;-63
2022/10/26 07:37:07;;;;;;;13.32;7.55;;;;;;;;;;4938180;29;20043;-64
2022/10/26 07:39:33;;;;;;;12.70;7.97;;;11.90;99.90;;;;;;4956190;29;20490;-64
2022/10/26 07:41:58;;;;;;;10.25;7.72;;;12.00;99.90;;;;;;4954640;28;20079;-63
2022/10/26 07:44:24;;;;;;;14.32;8.02;;;12.00;99.90;;;;;;4956301;29;20164;-63
2022/10/26 07:46:50;;;;;;;13.63;8.15;;;12.10;99.90;;;;;;4938199;29;20098;-63
2022/10/26 07:49:16;;;;;;;15.50;8.30;;;12.10;99.90;;;;;;4956074;29;20093;-63
2022/10/26 07:51:41;;;;;;;11.73;7.18;;;12.30;99.90;;;;;;4955722;29;20438;-64
2022/10/26 07:54:07;;;;;;;13.07;6.88;;;12.20;99.90;;;;;;4955932;29;20043;-63
2022/10/26 07:56:32;;;;;;;10.55;7.35;;;12.40;99.90;;;;;;4953108;28;20051;-63
2022/10/26 07:58:58;;;;;;;13.00;7.72;;;12.60;99.90;;;;;;4948915;29;20055;-63
2022/10/26 08:01:24;;;;;;;15.80;7.25;;;12.60;99.90;;;;;;4953996;29;20105;-64
2022/10/26 08:03:53;;;;;;;16.55;7.45;;;12.40;99.90;;;;;;4938510;29;20043;-64
2022/10/26 08:06:22;;;;;;;10.60;6.75;;;12.40;99.90;;;;;;4937440;29;20039;-64
2022/10/26 08:08:48;;;;;;;14.70;7.10;;;12.50;99.90;;;;;;4938426;29;20054;-63
2022/10/26 08:11:15;;;;;;;9.35;6.60;;;12.80;99.90;;;;;;4953352;29;20043;-64
2022/10/26 08:13:41;;;;;;;15.27;7.85;;;12.70;99.90;;;;;;4945515;28;20047;-63
2022/10/26 08:16:07;;;;;;;10.82;6.75;;;12.90;99.90;;;;;;4949082;28;20504;-63
2022/10/26 08:18:32;;;;;;;11.07;6.45;;;12.90;99.90;;;;;;4938070;29;20043;-63
2022/10/26 08:21:04;;;;;;;13.52;6.10;;;12.90;99.90;;;;;;4954561;29;20039;-64
2022/10/26 08:23:30;;;;;;;9.95;6.25;;;12.90;99.90;;;;;;4950281;29;20093;-63
2022/10/26 08:26:03;;;;;;;9.30;6.25;;;14.40;99.90;;;;;;4947592;29;20122;-63
2022/10/26 08:28:29;;;;;;;8.40;4.65;;;15.80;99.90;;;;;;4955166;29;20039;-63
2022/10/26 08:30:55;;;;;;;9.95;4.93;;;16.80;99.90;;;;;;4935432;28;20609;-63
2022/10/26 08:33:22;;;;;;;7.95;5.00;;;17.50;99.90;;;;;;4951496;29;20050;-64
2022/10/26 08:35:48;;;;;;;5.50;4.45;;;17.50;99.90;;;;;;4937349;28;20043;-63
2022/10/26 08:38:14;;;;;;;9.13;4.57;;;;;;;;;;4953767;29;20110;-63
2022/10/26 08:40:42;;;;;;;9.32;4.18;;;18.10;99.90;;;;;;4953898;28;20043;-65
2022/10/26 08:43:38;;;;;;;9.88;4.20;;;19.10;99.90;;;;;;4935612;29;20039;-63
2022/10/26 08:46:15;;;;;;;6.35;4.05;;;19.20;99.90;;;;;;4937945;29;20057;-65
2022/10/26 08:48:48;;;;;;;11.07;4.63;;;19.40;99.90;;;;;;4937893;29;20127;-64
2022/10/26 08:51:17;;;;;;;6.68;3.53;;;20.00;99.90;;;;;;4937887;29;20549;-64
2022/10/26 08:53:48;;;;;;;8.60;4.20;;;19.70;99.90;;;;;;4937678;29;20043;-63
2022/10/26 08:56:22;;;;;;;5.65;3.40;;;21.00;99.90;;;;;;4953339;28;20075;-64
2022/10/26 08:58:55;;;;;;;7.50;3.28;;;20.80;99.90;;;;;;4955317;29;20094;-64
2022/10/26 09:01:21;;;;;;;9.50;3.38;;;21.20;99.90;;;;;;4954926;29;20094;-64
2022/10/26 09:03:46;;;;;;;9.60;3.50;;;21.50;99.90;;;;;;4937571;29;20043;-64
2022/10/26 09:06:29;;;;;;;7.60;3.33;;;21.70;99.90;;;;;;4937440;29;20094;-64
2022/10/26 09:09:19;;;;;;;6.70;3.25;;;21.40;99.90;;;;;;4935446;29;20498;-64
2022/10/26 09:11:57;;;;;;;6.25;2.83;;;21.60;99.90;;;;;;4951170;28;20090;-64
2022/10/26 09:15:00;;;;;;;3.92;2.30;;;21.20;99.90;;;;;;4942612;28;20078;-64
2022/10/26 09:17:32;;;;;;;6.22;3.10;;;20.40;99.90;;;;;;4936404;29;20498;-63
2022/10/26 09:20:11;;;;;;;11.23;3.10;;;20.00;99.90;;;;;;4954597;29;20036;-64
2022/10/26 09:22:58;;;;;;;9.88;3.78;;;21.30;99.90;;;;;;4946789;29;20586;-64
2022/10/26 09:25:28;;;;;;;8.10;2.63;;;20.30;99.90;;;;;;4933299;29;20043;-64
2022/10/26 09:27:57;;;;;;;9.80;2.60;;;20.30;99.90;;;;;;4954601;29;20122;-64
2022/10/26 09:30:23;;;;;;;6.50;2.28;;;19.70;99.90;;;;;;4952622;28;20521;-63
2022/10/26 09:32:54;;;;;;;7.35;2.80;;;19.30;99.90;;;;;;4929177;29;20052;-63
2022/10/26 09:35:43;;;;;;;11.35;3.05;;;18.70;99.90;;;;;;4953806;28;20047;-64
2022/10/26 09:38:14;;;;;;;4.43;2.60;;;18.60;99.90;;;;;;4924909;29;20506;-63
2022/10/26 09:40:52;;;;;;;7.45;2.58;;;18.70;99.90;;;;;;4909207;29;20093;-64
2022/10/26 09:43:25;;;;;;;5.88;2.95;;;18.00;99.90;;;;;;4936986;29;20050;-64
2022/10/26 09:45:51;;;;;;;6.60;3.00;;;17.70;99.90;;;;;;4937230;29;20441;-64
2022/10/26 09:48:30;;;;;;;7.32;3.42;;;17.80;99.90;;;;;;4933684;29;20486;-63
2022/10/26 09:50:56;;;;;;;12.75;3.70;;;17.50;99.90;;;;;;4934972;29;20043;-64
2022/10/26 09:53:22;;;;;;;5.93;2.63;;;17.60;99.90;;;;;;4955067;28;20039;-63
2022/10/26 09:55:53;;;;;;;4.60;2.30;;;17.20;99.90;;;;;;4957919;29;20141;-64
2022/10/26 09:58:34;;;;;;;6.72;2.90;;;17.50;99.90;;;;;;4944693;28;20035;-63
2022/10/26 10:00:59;;;;;;;6.35;2.53;;;17.40;99.90;;;;;;4934945;29;20043;-63
2022/10/26 10:03:28;;;;;;;4.68;2.65;;;17.40;99.90;;;;;;4957004;29;20118;-63
2022/10/26 10:06:17;;;;;;;4.80;2.47;;;17.40;99.90;;;;;;4958000;29;20078;-63
2022/10/26 10:09:02;;;;;;;9.48;2.40;;;17.60;99.90;;;;;;4921599;29;20514;-63
2022/10/26 10:11:38;;;;;;;14.60;3.00;;;17.70;99.90;;;;;;4938230;29;20489;-63
2022/10/26 10:14:16;;;;;;;4.22;2.22;;;18.00;99.90;;;;;;4937851;29;20140;-63
2022/10/26 10:16:52;;;;;;;4.53;2.28;;;17.80;99.90;;;;;;4957649;29;20039;-63
2022/10/26 10:19:37;;;;;;;11.63;3.00;;;17.60;99.90;;;;;;4957908;29;20174;-63
2022/10/26 10:22:11;;;;;;;;;;;17.60;99.90;;;;;;4945374;29;20110;-63
2022/10/26 10:24:42;;;;;;;8.20;2.53;;;17.70;99.90;;;;;;4940588;29;20270;-64
2022/10/26 10:27:16;;;;;;;6.13;2.10;;;17.70;99.90;;;;;;4957601;29;20043;-64
2022/10/26 10:29:48;;;;;;;7.22;2.10;;;17.90;99.90;;;;;;4957023;28;20035;-63
2022/10/26 10:32:22;;;;;;;10.07;2.95;;;17.80;99.90;;;;;;4957377;29;20118;-63
2022/10/26 10:34:49;;;;;;;5.13;2.60;;;17.90;99.90;;;;;;4940043;29;20047;-63
2022/10/26 10:37:33;;;;;;;5.50;1.92;;;17.90;99.90;;;;;;4957485;29;20047;-63
2022/10/26 10:40:02;;;;;;;6.15;1.60;;;18.10;99.90;;;;;;4940075;29;20162;-64
2022/10/26 10:42:38;;;;;;;5.57;1.60;;;18.00;99.90;;;;;;4956466;28;20079;-64
2022/10/26 10:45:06;;;;;;;5.50;2.20;;;18.10;99.90;;;;;;4946337;29;20040;-63
2022/10/26 10:47:34;;;;;;;4.78;1.88;;;18.10;99.90;;;;;;4956964;29;20054;-63
2022/10/26 10:50:03;;;;;;;4.65;1.38;;;18.20;99.90;;;;;;4957370;29;20118;-64
2022/10/26 10:52:32;;;;;;;4.90;1.30;;;18.30;99.90;;;;;;4956994;29;20501;-63
2022/10/26 10:55:21;;;;;;;7.05;1.30;;;18.10;99.90;;;;;;4939986;29;20514;-64
2022/10/26 10:58:08;;;;;;;7.43;1.70;;;18.10;99.90;;;;;;4956403;28;20047;-63
2022/10/26 11:00:36;;;;;;;4.38;1.60;;;18.30;99.90;;;;;;4939169;29;20101;-63
2022/10/26 11:03:27;;;;;;;4.60;1.98;;;18.30;99.90;;;;;;4956722;29;20031;-63
2022/10/26 11:06:02;;;;;;;5.60;2.85;;;18.20;99.90;;;;;;4939385;29;20508;-62
2022/10/26 11:08:34;;;;;;;;;;;18.20;99.90;;;;;;4927485;29;20050;-63
2022/10/26 11:11:05;;;;;;;8.73;2.10;;;18.20;99.90;;;;;;4939843;29;19926;-63
2022/10/26 11:13:55;;;;;;;6.53;2.15;;;18.40;99.90;;;;;;4927821;29;20098;-63
2022/10/26 11:16:55;;;;;;;5.63;2.30;;;18.10;99.90;;;;;;4956655;29;20397;-63
2022/10/26 11:19:32;;;;;;;8.10;1.88;;;18.20;99.90;;;;;;4932480;29;20109;-63
2022/10/26 11:21:58;;;;;;;11.70;3.00;;;18.10;99.90;;;;;;4943145;29;20430;-65
2022/10/26 11:24:45;;;;;;;5.57;1.98;;;17.90;99.90;;;;;;4939271;29;20096;-63
2022/10/26 11:27:33;;;;;;;7.72;2.42;;;17.90;99.90;;;;;;4927075;29;20102;-63
2022/10/26 11:30:02;;;;;;;9.00;2.15;;;18.20;99.90;;;;;;4935616;29;20047;-63
2022/10/26 11:32:44;;;;;;;8.93;2.83;;;18.10;99.90;;;;;;4939255;29;20110;-63
2022/10/26 11:35:33;;;;;;;7.53;2.75;;;18.20;99.90;;;;;;4956340;29;20039;-64
2022/10/26 11:38:19;;;;;;;11.68;2.55;;;18.50;99.90;;;;;;4956205;29;20051;-63
2022/10/26 11:41:03;;;;;;;7.38;2.65;;;18.20;99.90;;;;;;4943391;29;20048;-64
2022/10/26 11:43:38;;;;;;;4.47;2.15;;;18.30;99.90;;;;;;4955262;28;20069;-63
2022/10/26 11:46:33;;;;;;;4.28;2.50;;;18.50;99.90;;;;;;4956028;29;20043;-64
2022/10/26 11:49:10;;;;;;;9.70;2.30;;;18.40;99.90;;;;;;4956231;29;20048;-64
2022/10/26 11:51:47;;;;;;;5.50;2.60;;;18.50;99.90;;;;;;4956177;29;20166;-63
2022/10/26 11:54:22;;;;;;;4.25;2.60;;;18.40;99.90;;;;;;4938588;29;20163;-63
2022/10/26 11:56:51;;;;;;;4.47;2.88;;;18.80;99.90;;;;;;4954884;28;20064;-64
2022/10/26 11:59:23;;;;;;;5.00;2.00;;;18.40;99.90;;;;;;4951518;29;20039;-63
2022/10/26 12:01:58;;;;;;;7.97;2.22;;;18.70;99.90;;;;;;4938879;29;20051;-63
2022/10/26 12:04:26;;;;;;;;;;;18.70;99.90;;;;;;4956029;29;20046;-63
2022/10/26 12:06:54;;;;;;;4.63;2.55;;;18.40;99.90;;;;;;4955635;29;19919;-63
2022/10/26 12:09:24;;;;;;;9.20;2.95;;;18.40;99.90;;;;;;4955771;29;20126;-63
2022/10/26 12:12:13;;;;;;;6.10;2.70;;;18.40;99.90;;;;;;4954893;28;20055;-63
2022/10/26 12:14:45;;;;;;;9.35;2.50;;;18.30;99.90;;;;;;4938330;29;20043;-63
2022/10/26 12:17:38;;;;;;;10.32;3.53;;;18.20;99.90;;;;;;4954693;28;20406;-64
2022/10/26 12:20:17;;;;;;;10.77;2.85;;;18.10;99.90;;;;;;4938476;29;20039;-63
2022/10/26 12:22:43;;;;;;;5.07;2.85;;;18.30;99.90;;;;;;4938556;29;20057;-63
2022/10/26 12:25:12;;;;;;;12.15;2.72;;;18.10;99.90;;;;;;4955192;29;20035;-64
2022/10/26 12:27:37;;;;;;;9.52;2.92;;;18.00;99.90;;;;;;4936994;29;20059;-64
2022/10/26 12:30:18;;;;;;;7.78;2.85;;;18.10;99.90;;;;;;4938181;29;20167;-63
2022/10/26 12:32:43;;;;;;;13.07;3.28;;;18.10;99.90;;;;;;4955276;29;20044;-63
2022/10/26 12:35:29;;;;;;;10.65;3.83;;;18.00;99.90;;;;;;4938142;29;20066;-63
2022/10/26 12:37:55;;;;;;;13.15;3.13;;;18.10;99.90;;;;;;4955465;29;20049;-63
2022/10/26 12:40:33;;;;;;;10.02;3.90;;;18.10;99.90;;;;;;4954981;29;20031;-63
2022/10/26 12:43:13;;;;;;;8.57;3.70;;;18.00;99.90;;;;;;4953633;28;20066;-63
2022/10/26 12:45:46;;;;;;;14.40;3.80;;;18.10;99.90;;;;;;4937738;29;20079;-64
2022/10/26 12:48:39;;;;;;;12.48;4.63;;;17.80;99.90;;;;;;4954926;29;20524;-63
2022/10/26 12:51:20;;;;;;;7.75;4.25;;;17.90;99.90;;;;;;4948821;29;20458;-63
2022/10/26 12:54:11;;;;;;;12.10;4.28;;;18.10;99.90;;;;;;4937627;29;20054;-63
2022/10/26 12:57:09;;;;;;;11.73;4.20;;;17.80;99.90;;;;;;4942487;28;20134;-63
2022/10/26 13:00:00;;;;;;;15.77;4.10;;;17.80;99.90;;;;;;4937664;29;20047;-63
2022/10/26 13:02:41;;;;;;;7.68;4.07;;;17.80;99.90;;;;;;4955076;29;20046;-63
2022/10/26 13:05:39;;;;;;;10.23;3.63;;;17.80;99.90;;;;;;4942799;29;20159;-63